createdAt,value
2018-12-20T00:00:18.482Z,54.81
2018-12-20T00:02:47.724Z,54.55
2018-12-20T00:05:16.994Z,54.80
2018-12-20T00:07:46.294Z,55.68
2018-12-20T00:10:16.057Z,54.36
2018-12-20T00:12:45.395Z,56.18
2018-12-20T00:15:16.725Z,54.87
2018-12-20T00:17:51.147Z,55.98
2018-12-20T00:20:20.908Z,55.79
2018-12-20T00:22:50.039Z,55.69
2018-12-20T00:25:19.395Z,55.42
2018-12-20T00:27:48.700Z,55.00
2018-12-20T00:30:17.969Z,54.07
2018-12-20T00:32:47.705Z,55.24
2018-12-20T00:35:16.941Z,54.64
2018-12-20T00:37:47.578Z,54.00
2018-12-20T00:40:16.951Z,53.08
2018-12-20T00:42:46.281Z,53.00
2018-12-20T00:45:16.580Z,52.58
2018-12-20T00:47:45.975Z,52.18
2018-12-20T00:50:15.227Z,52.52
2018-12-20T00:52:44.544Z,53.04
2018-12-20T00:55:13.966Z,52.37
2018-12-20T00:57:43.813Z,53.37
2018-12-20T01:00:13.267Z,51.79
2018-12-20T01:02:42.459Z,53.72
2018-12-20T01:05:11.875Z,53.71
2018-12-20T01:07:41.110Z,53.99
2018-12-20T01:10:12.227Z,54.53
2018-12-20T01:12:41.387Z,54.41
2018-12-20T01:15:10.712Z,54.11
2018-12-20T01:17:40.215Z,53.95
2018-12-20T01:20:10.538Z,53.32
2018-12-20T01:22:40.257Z,54.85
2018-12-20T01:25:09.602Z,55.19
2018-12-20T01:27:39.074Z,54.76
2018-12-20T01:30:08.894Z,55.15
2018-12-20T01:32:38.988Z,54.62
2018-12-20T01:35:08.739Z,54.46
2018-12-20T01:37:38.066Z,55.38
2018-12-20T01:40:08.908Z,54.35
2018-12-20T01:42:38.230Z,55.31
2018-12-20T01:45:07.573Z,54.63
2018-12-20T01:47:37.448Z,54.02
2018-12-20T01:50:07.502Z,53.96
2018-12-20T01:52:36.735Z,54.01
2018-12-20T01:55:06.558Z,53.75
2018-12-20T01:57:35.858Z,54.10
2018-12-20T02:00:09.468Z,54.65
2018-12-20T02:02:39.642Z,54.43
2018-12-20T02:05:09.109Z,55.29
2018-12-20T02:07:39.178Z,56.71
2018-12-20T02:10:08.601Z,55.65
2018-12-20T02:12:38.378Z,56.28
2018-12-20T02:15:08.070Z,57.32
2018-12-20T02:17:37.443Z,56.05
2018-12-20T02:20:07.013Z,55.15
2018-12-20T02:22:36.446Z,55.21
2018-12-20T02:25:06.517Z,55.85
2018-12-20T02:27:35.733Z,54.80
2018-12-20T02:30:06.061Z,54.30
2018-12-20T02:32:35.303Z,55.71
2018-12-20T02:35:04.582Z,56.30
2018-12-20T02:37:34.450Z,55.87
2018-12-20T02:41:35.004Z,54.18
2018-12-20T02:44:04.835Z,54.64
2018-12-20T02:46:34.352Z,53.97
2018-12-20T02:49:04.332Z,53.37
2018-12-20T02:51:33.790Z,52.46
2018-12-20T02:54:03.389Z,53.14
2018-12-20T02:56:32.772Z,53.60
2018-12-20T02:59:03.504Z,53.18
2018-12-20T03:01:33.414Z,53.52
2018-12-20T03:04:02.733Z,53.94
2018-12-20T03:06:31.932Z,54.36
2018-12-20T03:09:01.099Z,54.58
2018-12-20T03:11:30.806Z,53.62
2018-12-20T03:14:00.797Z,53.64
2018-12-20T03:16:30.014Z,54.42
2018-12-20T03:18:59.639Z,53.03
2018-12-20T03:21:29.868Z,53.51
2018-12-20T03:23:59.475Z,53.79
2018-12-20T03:26:29.201Z,53.96
2018-12-20T03:28:58.566Z,54.60
2018-12-20T03:31:27.819Z,55.19
2018-12-20T03:33:57.059Z,55.03
2018-12-20T03:36:26.242Z,54.02
2018-12-20T03:38:56.253Z,55.89
2018-12-20T03:41:25.440Z,56.06
2018-12-20T03:43:55.278Z,55.73
2018-12-20T03:46:24.471Z,55.59
2018-12-20T03:48:54.417Z,56.11
2018-12-20T03:51:24.656Z,55.00
2018-12-20T03:53:54.010Z,54.88
2018-12-20T03:56:23.848Z,55.64
2018-12-20T03:58:54.090Z,53.74
2018-12-20T04:01:23.274Z,53.81
2018-12-20T04:03:52.961Z,54.99
2018-12-20T04:06:22.453Z,54.72
2018-12-20T04:08:51.861Z,54.14
2018-12-20T04:11:21.200Z,54.52
2018-12-20T04:13:50.564Z,53.33
2018-12-20T04:16:20.271Z,53.81
2018-12-20T04:18:49.838Z,53.64
2018-12-20T04:21:20.402Z,54.21
2018-12-20T04:23:49.596Z,54.30
2018-12-20T04:26:18.871Z,53.81
2018-12-20T04:28:48.722Z,55.02
2018-12-20T04:31:17.923Z,54.77
2018-12-20T04:33:47.344Z,55.32
2018-12-20T04:36:16.709Z,55.92
2018-12-20T04:38:46.157Z,55.11
2018-12-20T04:41:16.164Z,54.86
2018-12-20T04:43:45.565Z,54.30
2018-12-20T04:46:16.321Z,55.72
2018-12-20T04:48:45.559Z,54.58
2018-12-20T04:51:14.876Z,54.96
2018-12-20T04:53:44.679Z,54.63
2018-12-20T04:56:13.871Z,56.22
2018-12-20T04:58:43.627Z,56.16
2018-12-20T05:01:12.973Z,56.92
2018-12-20T05:03:42.245Z,56.40
2018-12-20T05:06:12.106Z,57.07
2018-12-20T05:08:41.268Z,56.88
2018-12-20T05:11:10.674Z,57.00
2018-12-20T05:13:39.997Z,56.42
2018-12-20T05:16:09.388Z,56.01
2018-12-20T05:18:39.233Z,55.73
2018-12-20T05:21:09.542Z,55.15
2018-12-20T05:23:39.100Z,56.17
2018-12-20T05:26:08.550Z,55.16
2018-12-20T05:28:37.891Z,55.27
2018-12-20T05:31:08.761Z,56.25
2018-12-20T05:33:38.397Z,55.66
2018-12-20T05:36:07.649Z,55.16
2018-12-20T05:38:36.850Z,53.97
2018-12-20T05:41:06.246Z,53.86
2018-12-20T05:43:36.292Z,54.23
2018-12-20T05:46:05.685Z,54.86
2018-12-20T05:48:36.133Z,54.67
2018-12-20T05:51:05.508Z,54.00
2018-12-20T05:53:34.925Z,54.26
2018-12-20T05:56:06.463Z,54.00
2018-12-20T05:58:35.850Z,53.43
2018-12-20T06:01:05.152Z,54.02
2018-12-20T06:03:34.552Z,53.37
2018-12-20T06:06:04.005Z,52.80
2018-12-20T06:08:33.880Z,53.39
2018-12-20T06:11:03.340Z,53.15
2018-12-20T06:13:32.851Z,52.76
2018-12-20T06:16:02.049Z,52.11
2018-12-20T06:18:31.341Z,52.46
2018-12-20T06:21:01.246Z,52.53
2018-12-20T06:23:30.623Z,52.28
2018-12-20T06:25:59.807Z,52.16
2018-12-20T06:28:29.018Z,51.63
2018-12-20T06:30:58.176Z,52.37
2018-12-20T06:33:27.957Z,52.25
2018-12-20T06:35:57.130Z,51.72
2018-12-20T06:38:26.275Z,51.31
2018-12-20T06:40:55.472Z,51.14
2018-12-20T06:43:24.649Z,50.71
2018-12-20T06:45:54.284Z,50.74
2018-12-20T06:48:23.486Z,51.51
2018-12-20T06:50:53.871Z,51.31
2018-12-20T06:53:23.177Z,51.27
2018-12-20T06:55:52.467Z,51.10
2018-12-20T06:58:22.080Z,50.75
2018-12-20T07:00:51.267Z,50.70
2018-12-20T07:03:21.164Z,50.72
2018-12-20T07:05:50.330Z,50.15
2018-12-20T07:08:19.573Z,50.85
2018-12-20T07:10:49.499Z,50.76
2018-12-20T07:13:18.859Z,50.53
2018-12-20T07:15:48.078Z,50.15
2018-12-20T07:18:17.359Z,49.92
2018-12-20T07:20:46.938Z,49.68
2018-12-20T07:23:16.619Z,49.22
2018-12-20T07:25:45.978Z,48.37
2018-12-20T07:28:15.195Z,48.75
2018-12-20T07:30:44.373Z,48.52
2018-12-20T07:33:14.259Z,48.96
2018-12-20T07:35:44.142Z,48.83
2018-12-20T07:38:13.406Z,48.36
2018-12-20T07:40:42.938Z,48.22
2018-12-20T07:43:12.120Z,48.25
2018-12-20T07:45:41.394Z,48.10
2018-12-20T07:48:11.090Z,48.17
2018-12-20T07:50:40.407Z,48.17
2018-12-20T07:53:11.124Z,47.85
2018-12-20T07:55:41.573Z,47.64
2018-12-20T07:58:10.757Z,47.35
2018-12-20T08:00:40.411Z,47.92
2018-12-20T08:03:10.251Z,47.21
2018-12-20T08:05:39.443Z,47.03
2018-12-20T08:09:38.751Z,46.54
2018-12-20T08:12:08.444Z,47.05
2018-12-20T08:14:37.707Z,47.47
2018-12-20T08:17:08.183Z,47.43
2018-12-20T08:19:37.379Z,47.75
2018-12-20T08:22:06.578Z,48.41
2018-12-20T08:24:36.389Z,48.32
2018-12-20T08:27:05.563Z,48.67
2018-12-20T08:29:34.718Z,47.90
2018-12-20T08:32:03.937Z,48.14
2018-12-20T08:34:33.124Z,48.50
2018-12-20T08:37:02.915Z,48.63
2018-12-20T08:39:32.165Z,50.20
2018-12-20T08:42:01.362Z,50.18
2018-12-20T08:44:30.547Z,49.90
2018-12-20T08:46:59.859Z,49.52
2018-12-20T08:49:29.547Z,51.41
2018-12-20T08:51:58.733Z,49.47
2018-12-20T08:54:34.709Z,50.03
2018-12-20T08:57:15.058Z,49.72
2018-12-20T08:59:45.066Z,50.40
2018-12-20T09:02:23.183Z,50.60
2018-12-20T09:04:58.724Z,49.93
2018-12-20T09:07:27.904Z,50.46
2018-12-20T09:09:57.586Z,49.78
2018-12-20T09:12:26.998Z,49.90
2018-12-20T09:14:56.223Z,50.08
2018-12-20T09:17:25.459Z,49.99
2018-12-20T09:19:56.376Z,49.52
2018-12-20T09:22:26.209Z,48.63
2018-12-20T09:24:55.371Z,48.75
2018-12-20T09:27:24.648Z,48.82
2018-12-20T09:29:55.556Z,48.81
2018-12-20T09:32:24.732Z,48.68
2018-12-20T09:34:54.501Z,48.48
2018-12-20T09:37:23.688Z,48.81
2018-12-20T09:39:53.002Z,48.37
2018-12-20T09:42:22.750Z,48.14
2018-12-20T09:44:51.915Z,48.69
2018-12-20T09:47:27.808Z,49.15
2018-12-20T09:49:57.120Z,49.60
2018-12-20T09:52:26.268Z,49.40
2018-12-20T09:54:58.626Z,49.58
2018-12-20T09:57:28.328Z,49.66
2018-12-20T09:59:57.505Z,49.52
2018-12-20T10:02:27.975Z,49.95
2018-12-20T10:04:57.236Z,49.81
2018-12-20T10:07:26.429Z,49.43
2018-12-20T10:09:56.344Z,49.05
2018-12-20T10:12:25.539Z,49.37
2018-12-20T10:14:54.825Z,49.37
2018-12-20T10:17:24.114Z,49.75
2018-12-20T10:19:53.292Z,49.24
2018-12-20T10:22:22.940Z,48.61
2018-12-20T10:24:52.214Z,48.97
2018-12-20T10:27:21.405Z,48.97
2018-12-20T10:29:51.208Z,48.91
2018-12-20T10:32:21.084Z,49.10
2018-12-20T10:34:50.928Z,49.37
2018-12-20T10:37:20.137Z,49.09
2018-12-20T10:39:49.549Z,48.80
2018-12-20T10:42:19.053Z,48.48
2018-12-20T10:44:48.253Z,48.03
2018-12-20T10:47:29.158Z,48.29
2018-12-20T10:49:59.044Z,48.44
2018-12-20T10:52:29.128Z,48.31
2018-12-20T10:54:59.911Z,47.78
2018-12-20T10:57:30.236Z,47.53
2018-12-20T10:59:59.391Z,48.09
2018-12-20T11:02:33.990Z,48.16
2018-12-20T11:05:07.331Z,48.10
2018-12-20T11:07:43.625Z,48.74
2018-12-20T11:10:23.394Z,49.01
2018-12-20T11:12:52.689Z,49.56
2018-12-20T11:15:22.005Z,50.50
2018-12-20T11:17:51.744Z,49.49
2018-12-20T11:20:21.096Z,50.28
2018-12-20T11:22:50.293Z,50.54
2018-12-20T11:25:19.595Z,51.04
2018-12-20T11:27:48.921Z,51.05
2018-12-20T11:30:18.579Z,50.44
2018-12-20T11:32:47.792Z,49.94
2018-12-20T11:35:17.048Z,49.42
2018-12-20T11:37:46.819Z,48.36
2018-12-20T11:40:16.024Z,47.97
2018-12-20T11:42:45.760Z,47.48
2018-12-20T11:45:16.505Z,47.46
2018-12-20T11:47:46.282Z,47.15
2018-12-20T11:50:15.608Z,47.23
2018-12-20T11:52:44.795Z,47.19
2018-12-20T11:55:16.423Z,46.88
2018-12-20T11:57:45.849Z,47.66
2018-12-20T12:00:15.167Z,47.15
2018-12-20T12:02:44.387Z,47.99
2018-12-20T12:05:13.752Z,47.63
2018-12-20T12:07:43.415Z,48.11
2018-12-20T12:10:12.743Z,48.80
2018-12-20T12:12:41.911Z,49.29
2018-12-20T12:15:11.107Z,49.94
2018-12-20T12:17:41.145Z,48.79
2018-12-20T12:20:10.950Z,48.88
2018-12-20T12:22:40.114Z,49.17
2018-12-20T12:25:09.642Z,48.62
2018-12-20T12:27:38.833Z,48.17
2018-12-20T12:30:09.969Z,47.86
2018-12-20T12:32:39.721Z,47.25
2018-12-20T12:35:09.347Z,46.59
2018-12-20T12:37:38.796Z,46.54
2018-12-20T12:40:08.758Z,47.22
2018-12-20T12:42:38.123Z,47.63
2018-12-20T12:45:08.195Z,46.65
2018-12-20T12:47:42.602Z,46.62
2018-12-20T12:50:11.778Z,46.41
2018-12-20T12:52:40.963Z,45.65
2018-12-20T12:55:10.713Z,45.06
2018-12-20T12:57:40.893Z,44.95
2018-12-20T13:00:10.464Z,45.61
2018-12-20T13:02:39.677Z,45.29
2018-12-20T13:05:09.511Z,48.20
2018-12-20T13:07:39.880Z,47.57
2018-12-20T13:10:09.364Z,46.22
2018-12-20T13:12:39.956Z,46.70
2018-12-20T13:15:10.571Z,47.30
2018-12-20T13:17:39.838Z,46.40
2018-12-20T13:20:11.212Z,47.23
2018-12-20T13:22:40.431Z,46.29
2018-12-20T13:25:09.684Z,46.15
2018-12-20T13:27:38.939Z,45.63
2018-12-20T13:30:10.768Z,45.46
2018-12-20T13:32:41.299Z,45.04
2018-12-20T13:35:10.507Z,45.29
2018-12-20T13:37:39.675Z,44.81
2018-12-20T13:40:09.184Z,45.91
2018-12-20T13:42:38.395Z,45.09
2018-12-20T13:45:08.543Z,44.73
2018-12-20T13:47:37.827Z,44.79
2018-12-20T13:50:08.783Z,44.73
2018-12-20T13:52:38.024Z,44.36
2018-12-20T13:55:07.292Z,44.54
2018-12-20T13:57:36.911Z,44.43
2018-12-20T14:00:12.322Z,44.44
2018-12-20T14:02:41.655Z,44.21
2018-12-20T14:05:11.149Z,45.43
2018-12-20T14:07:42.195Z,44.73
2018-12-20T14:10:11.358Z,44.62
2018-12-20T14:12:40.533Z,44.47
2018-12-20T14:15:09.899Z,45.13
2018-12-20T14:17:39.147Z,45.50
2018-12-20T14:20:09.112Z,44.78
2018-12-20T14:22:38.367Z,44.99
2018-12-20T14:25:07.659Z,45.74
2018-12-20T14:27:36.920Z,46.72
2018-12-20T14:30:08.692Z,47.39
2018-12-20T14:32:38.409Z,47.69
2018-12-20T14:35:07.853Z,47.99
2018-12-20T14:37:37.295Z,49.14
2018-12-20T14:40:08.551Z,48.63
2018-12-20T14:42:37.921Z,48.33
2018-12-20T14:45:08.277Z,48.25
2018-12-20T14:47:37.495Z,47.89
2018-12-20T14:50:08.639Z,47.40
2018-12-20T14:52:37.857Z,47.18
2018-12-20T14:55:08.523Z,47.78
2018-12-20T14:57:38.680Z,48.00
2018-12-20T15:00:11.245Z,47.75
2018-12-20T15:02:40.603Z,48.18
2018-12-20T15:05:09.775Z,47.36
2018-12-20T15:07:39.542Z,47.53
2018-12-20T15:10:10.242Z,47.17
2018-12-20T15:12:40.491Z,47.06
2018-12-20T15:15:10.185Z,46.53
2018-12-20T15:17:39.486Z,46.21
2018-12-20T15:20:10.530Z,47.67
2018-12-20T15:22:39.704Z,47.62
2018-12-20T15:25:09.106Z,47.46
2018-12-20T15:27:38.310Z,47.04
2018-12-20T15:30:09.053Z,47.99
2018-12-20T15:32:38.783Z,47.27
2018-12-20T15:35:08.124Z,48.33
2018-12-20T15:37:38.306Z,48.53
2018-12-20T15:40:09.199Z,47.69
2018-12-20T15:42:38.389Z,48.47
2018-12-20T15:45:09.338Z,48.28
2018-12-20T15:47:39.157Z,48.00
2018-12-20T15:50:09.560Z,48.14
2018-12-20T15:52:38.889Z,47.80
2018-12-20T15:55:08.392Z,47.86
2018-12-20T15:57:38.189Z,48.83
2018-12-20T16:00:09.598Z,49.07
2018-12-20T16:02:40.094Z,49.84
2018-12-20T16:05:09.335Z,48.78
2018-12-20T16:07:40.040Z,48.65
2018-12-20T16:10:10.843Z,48.37
2018-12-20T16:12:41.126Z,49.62
2018-12-20T16:15:10.303Z,49.90
2018-12-20T16:17:40.586Z,49.02
2018-12-20T16:20:09.894Z,50.33
2018-12-20T16:22:39.607Z,49.74
2018-12-20T16:25:09.232Z,49.45
2018-12-20T16:27:38.487Z,50.33
2018-12-20T16:30:10.583Z,50.04
2018-12-20T16:32:39.823Z,49.07
2018-12-20T16:35:13.467Z,49.14
2018-12-20T16:37:42.907Z,49.97
2018-12-20T16:40:12.155Z,49.72
2018-12-20T16:42:43.049Z,50.23
2018-12-20T16:45:12.809Z,50.57
2018-12-20T16:47:42.104Z,49.66
2018-12-20T16:50:11.284Z,48.74
2018-12-20T16:52:40.527Z,48.48
2018-12-20T16:55:09.894Z,48.54
2018-12-20T16:57:40.699Z,48.99
2018-12-20T17:00:11.911Z,49.24
2018-12-20T17:02:41.424Z,49.93
2018-12-20T17:05:10.604Z,49.53
2018-12-20T17:07:39.881Z,50.73
2018-12-20T17:10:09.771Z,49.79
2018-12-20T17:12:39.131Z,50.41
2018-12-20T17:15:09.823Z,49.17
2018-12-20T17:17:39.115Z,51.04
2018-12-20T17:20:09.012Z,50.36
2018-12-20T17:22:38.822Z,51.02
2018-12-20T17:25:08.171Z,50.51
2018-12-20T17:27:37.555Z,50.25
2018-12-20T17:30:08.720Z,48.81
2018-12-20T17:32:38.106Z,48.83
2018-12-20T17:35:07.895Z,49.48
2018-12-20T17:37:37.136Z,48.77
2018-12-20T17:40:07.458Z,48.76
2018-12-20T17:42:36.642Z,48.33
2018-12-20T17:45:07.589Z,51.94
2018-12-20T17:47:38.324Z,51.02
2018-12-20T17:50:08.605Z,50.20
2018-12-20T17:52:37.892Z,50.15
2018-12-20T17:55:07.265Z,49.74
2018-12-20T17:57:36.588Z,50.48
2018-12-20T18:00:08.020Z,49.94
2018-12-20T18:02:38.755Z,49.17
2018-12-20T18:05:08.704Z,48.79
2018-12-20T18:07:38.667Z,48.20
2018-12-20T18:10:11.375Z,48.75
2018-12-20T18:12:40.613Z,49.64
2018-12-20T18:15:11.303Z,49.51
2018-12-20T18:17:41.852Z,49.23
2018-12-20T18:20:11.599Z,49.21
2018-12-20T18:22:41.312Z,48.23
2018-12-20T18:25:11.069Z,48.81
2018-12-20T18:27:40.395Z,48.81
2018-12-20T18:30:11.519Z,48.52
2018-12-20T18:32:41.889Z,50.00
2018-12-20T18:35:11.887Z,49.13
2018-12-20T18:37:41.126Z,49.33
2018-12-20T18:40:10.998Z,48.78
2018-12-20T18:42:40.201Z,49.75
2018-12-20T18:45:10.254Z,48.85
2018-12-20T18:47:40.246Z,48.84
2018-12-20T18:50:11.408Z,50.21
2018-12-20T18:52:41.455Z,49.96
2018-12-20T18:55:11.245Z,50.29
2018-12-20T18:57:40.699Z,50.24
2018-12-20T19:00:11.377Z,50.38
2018-12-20T19:02:40.636Z,50.72
2018-12-20T19:05:11.443Z,50.65
2018-12-20T19:07:41.308Z,51.82
2018-12-20T19:10:11.034Z,52.10
2018-12-20T19:12:41.507Z,51.48
2018-12-20T19:15:10.878Z,52.80
2018-12-20T19:17:40.070Z,53.07
2018-12-20T19:20:16.032Z,54.36
2018-12-20T19:22:41.652Z,55.04
2018-12-20T19:25:11.480Z,55.41
2018-12-20T19:27:40.651Z,54.67
2018-12-20T19:30:11.358Z,54.41
2018-12-20T19:32:40.599Z,54.15
2018-12-20T19:35:09.881Z,53.55
2018-12-20T19:37:39.649Z,53.05
2018-12-20T19:40:11.451Z,53.21
2018-12-20T19:42:40.776Z,52.56
2018-12-20T19:45:09.956Z,53.22
2018-12-20T19:47:39.194Z,52.89
2018-12-20T19:50:10.610Z,52.73
2018-12-20T19:52:39.830Z,51.83
2018-12-20T19:55:09.188Z,51.76
2018-12-20T19:57:39.802Z,51.98
2018-12-20T20:00:13.816Z,51.75
2018-12-20T20:02:43.248Z,51.63
2018-12-20T20:05:13.395Z,51.55
2018-12-20T20:07:42.719Z,52.33
2018-12-20T20:10:12.616Z,51.71
2018-12-20T20:12:42.311Z,51.97
2018-12-20T20:15:16.791Z,51.97
2018-12-20T20:17:44.977Z,51.54
2018-12-20T20:20:14.637Z,51.22
2018-12-20T20:22:45.086Z,52.76
2018-12-20T20:25:14.295Z,51.55
2018-12-20T20:27:43.567Z,51.28
2018-12-20T20:30:15.043Z,51.40
2018-12-20T20:32:44.796Z,51.51
2018-12-20T20:35:14.592Z,50.86
2018-12-20T20:37:43.760Z,50.89
2018-12-20T20:40:12.936Z,50.89
2018-12-20T20:42:42.124Z,50.60
2018-12-20T20:45:12.422Z,50.96
2018-12-20T20:47:42.200Z,50.08
2018-12-20T20:50:11.690Z,50.83
2018-12-20T20:52:40.873Z,50.69
2018-12-20T20:55:10.106Z,50.79
2018-12-20T20:57:39.398Z,50.44
2018-12-20T21:00:12.644Z,50.48
2018-12-20T21:02:43.003Z,50.75
2018-12-20T21:05:15.331Z,50.53
2018-12-20T21:07:44.630Z,51.05
2018-12-20T21:10:14.468Z,51.60
2018-12-20T21:12:43.645Z,51.31
2018-12-20T21:15:13.296Z,51.93
2018-12-20T21:17:42.705Z,51.56
2018-12-20T21:20:13.449Z,52.04
2018-12-20T21:22:43.246Z,51.73
2018-12-20T21:25:12.754Z,51.62
2018-12-20T21:27:42.608Z,50.77
2018-12-20T21:30:11.973Z,50.90
2018-12-20T21:32:41.196Z,50.47
2018-12-20T21:35:11.063Z,50.40
2018-12-20T21:37:40.232Z,50.40
2018-12-20T21:40:09.501Z,49.84
2018-12-20T21:42:38.787Z,49.77
2018-12-20T21:45:09.355Z,50.46
2018-12-20T21:47:39.160Z,49.47
2018-12-20T21:50:10.871Z,49.89
2018-12-20T21:52:40.267Z,50.21
2018-12-20T21:55:10.275Z,50.43
2018-12-20T21:57:39.653Z,50.58
2018-12-20T22:00:11.704Z,50.36
2018-12-20T22:02:40.940Z,49.60
2018-12-20T22:05:10.165Z,48.86
2018-12-20T22:07:41.025Z,49.22
2018-12-20T22:10:10.247Z,49.85
2018-12-20T22:12:40.107Z,49.58
2018-12-20T22:15:09.473Z,49.66
2018-12-20T22:17:39.260Z,48.95
2018-12-20T22:20:08.574Z,48.93
2018-12-20T22:22:37.929Z,49.81
2018-12-20T22:25:08.189Z,49.21
2018-12-20T22:27:37.947Z,48.14
2018-12-20T22:30:09.470Z,48.11
2018-12-20T22:32:38.937Z,48.07
2018-12-20T22:35:08.241Z,48.06
2018-12-20T22:37:38.107Z,47.61
2018-12-20T22:40:09.279Z,48.67
2018-12-20T22:42:38.552Z,48.16
2018-12-20T22:45:09.464Z,48.06
2018-12-20T22:47:39.014Z,48.56
2018-12-20T22:50:10.861Z,48.83
2018-12-20T22:52:40.159Z,48.41
2018-12-20T22:55:09.539Z,48.79
2018-12-20T22:57:38.915Z,48.21
2018-12-20T23:00:11.357Z,48.08
2018-12-20T23:02:43.427Z,48.63
2018-12-20T23:05:12.771Z,49.14
2018-12-20T23:07:43.729Z,48.22
2018-12-20T23:10:14.262Z,48.21
2018-12-20T23:12:45.240Z,48.12
2018-12-20T23:15:15.402Z,48.38
2018-12-20T23:17:45.500Z,49.24
2018-12-20T23:20:14.692Z,48.95
2018-12-20T23:22:44.109Z,48.82
2018-12-20T23:25:14.011Z,50.36
2018-12-20T23:27:43.230Z,49.08
2018-12-20T23:30:12.509Z,49.11
2018-12-20T23:32:41.703Z,48.83
2018-12-20T23:35:10.939Z,47.80
2018-12-20T23:37:40.696Z,48.11
2018-12-20T23:40:09.941Z,47.57
2018-12-20T23:42:39.134Z,48.92
2018-12-20T23:45:08.480Z,49.28
2018-12-20T23:47:38.702Z,49.17
2018-12-20T23:50:08.459Z,49.04
2018-12-20T23:52:37.820Z,50.58
2018-12-20T23:55:07.040Z,50.71
2018-12-20T23:57:36.219Z,50.07
